createdAt,value
2019-04-25T00:02:02.373Z,20.87
2019-04-25T00:04:32.765Z,19.20
2019-04-25T00:07:03.801Z,20.30
2019-04-25T00:09:42.718Z,20.77
2019-04-25T00:12:15.293Z,20.23
2019-04-25T00:14:46.421Z,20.33
2019-04-25T00:17:16.571Z,20.07
2019-04-25T00:19:47.547Z,20.63
2019-04-25T00:22:43.853Z,19.97
2019-04-25T00:25:51.389Z,20.63
2019-04-25T00:28:22.935Z,20.30
2019-04-25T00:30:53.269Z,19.90
2019-04-25T00:33:25.142Z,20.07
2019-04-25T00:35:58.113Z,19.80
2019-04-25T00:38:27.972Z,19.30
2019-04-25T00:40:59.476Z,20.53
2019-04-25T00:43:31.474Z,20.07
2019-04-25T00:46:01.912Z,20.87
2019-04-25T00:48:31.837Z,20.57
2019-04-25T00:51:01.926Z,21.03
2019-04-25T00:53:32.384Z,20.27
2019-04-25T00:56:02.301Z,20.47
2019-04-25T00:58:46.805Z,20.13
2019-04-25T01:01:34.300Z,20.13
2019-04-25T01:04:04.966Z,20.13
2019-04-25T01:06:39.573Z,19.80
2019-04-25T01:09:14.289Z,19.37
2019-04-25T01:11:45.909Z,19.83
2019-04-25T01:14:16.438Z,20.30
2019-04-25T01:16:48.632Z,20.40
2019-04-25T01:19:18.647Z,19.90
2019-04-25T01:21:51.298Z,19.23
2019-04-25T01:24:22.005Z,20.00
2019-04-25T01:26:54.594Z,20.20
2019-04-25T01:29:25.305Z,18.50
2019-04-25T01:31:56.377Z,19.57
2019-04-25T01:34:44.326Z,19.67
2019-04-25T01:37:26.681Z,20.07
2019-04-25T01:40:08.001Z,19.93
2019-04-25T01:42:57.941Z,20.20
2019-04-25T01:45:31.585Z,19.43
2019-04-25T01:48:03.515Z,19.57
2019-04-25T01:50:35.238Z,18.70
2019-04-25T01:53:06.235Z,19.27
2019-04-25T01:55:37.173Z,18.97
2019-04-25T01:58:09.337Z,19.67
2019-04-25T02:00:45.069Z,20.07
2019-04-25T02:03:18.037Z,18.93
2019-04-25T02:05:48.432Z,19.57
2019-04-25T02:08:18.381Z,19.33
2019-04-25T02:11:03.199Z,19.40
2019-04-25T02:13:35.778Z,18.90
2019-04-25T02:16:07.097Z,19.37
2019-04-25T02:18:37.785Z,19.93
2019-04-25T02:21:08.374Z,18.60
2019-04-25T02:23:40.885Z,19.80
2019-04-25T02:26:16.043Z,18.97
2019-04-25T02:28:43.710Z,18.30
2019-04-25T02:31:17.758Z,18.73
2019-04-25T02:33:47.414Z,19.07
2019-04-25T02:36:18.482Z,19.40
2019-04-25T02:38:49.447Z,19.13
2019-04-25T02:41:24.834Z,18.83
2019-04-25T02:43:59.759Z,18.67
2019-04-25T02:46:47.005Z,19.77
2019-04-25T02:49:57.314Z,19.07
2019-04-25T02:52:49.919Z,20.20
2019-04-25T02:55:31.097Z,18.27
2019-04-25T02:57:54.104Z,18.97
2019-04-25T03:00:27.595Z,18.57
2019-04-25T03:02:59.185Z,19.53
2019-04-25T03:05:30.657Z,19.33
2019-04-25T03:08:05.391Z,18.77
2019-04-25T03:10:35.024Z,18.40
2019-04-25T03:13:10.250Z,19.50
2019-04-25T03:15:36.683Z,18.70
2019-04-25T03:18:10.862Z,19.23
2019-04-25T03:20:47.865Z,19.37
2019-04-25T03:23:42.502Z,19.47
2019-04-25T03:26:13.397Z,18.47
2019-04-25T03:28:44.255Z,18.20
2019-04-25T03:31:21.827Z,18.07
2019-04-25T03:33:47.735Z,19.57
2019-04-25T03:36:19.163Z,18.27
2019-04-25T03:38:49.621Z,19.17
2019-04-25T03:41:19.383Z,18.23
2019-04-25T03:43:49.191Z,18.00
2019-04-25T03:46:19.997Z,18.37
2019-04-25T03:48:50.677Z,18.43
2019-04-25T03:51:24.054Z,18.07
2019-04-25T03:53:55.065Z,19.37
2019-04-25T03:56:25.010Z,18.23
2019-04-25T03:58:55.697Z,18.73
2019-04-25T04:01:26.105Z,19.97
2019-04-25T04:03:56.662Z,19.20
2019-04-25T04:06:27.038Z,19.47
2019-04-25T04:09:00.600Z,20.93
2019-04-25T04:11:33.713Z,17.80
2019-04-25T04:14:06.807Z,19.53
2019-04-25T04:16:39.794Z,19.07
2019-04-25T04:19:15.756Z,19.20
2019-04-25T04:21:56.125Z,19.23
2019-04-25T04:24:34.441Z,19.33
2019-04-25T04:27:10.534Z,18.83
2019-04-25T04:29:40.527Z,20.43
2019-04-25T04:32:10.890Z,19.77
2019-04-25T04:34:41.237Z,18.70
2019-04-25T04:37:11.601Z,19.27
2019-04-25T04:39:43.732Z,19.70
2019-04-25T04:42:16.099Z,18.80
2019-04-25T04:44:46.552Z,20.90
2019-04-25T04:47:16.952Z,19.47
2019-04-25T04:49:48.947Z,19.90
2019-04-25T04:52:18.906Z,18.87
2019-04-25T04:54:49.821Z,19.57
2019-04-25T04:57:28.853Z,18.87
2019-04-25T04:59:53.576Z,18.90
2019-04-25T05:02:33.389Z,19.67
2019-04-25T05:05:30.529Z,19.03
2019-04-25T05:08:07.395Z,19.27
2019-04-25T05:10:37.321Z,20.13
2019-04-25T05:13:07.729Z,19.07
2019-04-25T05:15:38.162Z,19.37
2019-04-25T05:18:12.199Z,20.67
2019-04-25T05:20:42.109Z,18.50
2019-04-25T05:23:13.423Z,19.37
2019-04-25T05:25:45.080Z,18.33
2019-04-25T05:28:16.197Z,17.23
2019-04-25T05:30:53.517Z,18.30
2019-04-25T05:33:27.097Z,19.03
2019-04-25T05:35:58.570Z,18.47
2019-04-25T05:38:29.012Z,18.90
2019-04-25T05:41:06.546Z,18.40
2019-04-25T05:43:36.925Z,17.43
2019-04-25T05:46:07.897Z,17.87
2019-04-25T05:48:39.489Z,17.73
2019-04-25T05:51:11.397Z,18.43
2019-04-25T05:53:43.312Z,18.00
2019-04-25T05:56:14.600Z,17.10
2019-04-25T05:58:46.481Z,17.17
2019-04-25T06:01:17.329Z,18.10
2019-04-25T06:03:48.187Z,17.33
2019-04-25T06:06:19.261Z,16.60
2019-04-25T06:08:56.529Z,16.13
2019-04-25T06:11:45.090Z,16.37
2019-04-25T06:14:18.259Z,15.27
2019-04-25T06:16:48.853Z,14.57
2019-04-25T06:19:26.482Z,14.07
2019-04-25T06:21:57.541Z,14.00
2019-04-25T06:24:40.189Z,14.43
2019-04-25T06:27:28.892Z,14.13
2019-04-25T06:30:04.326Z,12.80
2019-04-25T06:32:35.623Z,13.53
2019-04-25T06:35:07.341Z,13.80
2019-04-25T06:37:37.749Z,12.33
2019-04-25T06:40:11.163Z,13.27
2019-04-25T06:42:43.425Z,12.87
2019-04-25T06:45:35.417Z,12.90
2019-04-25T06:48:13.896Z,12.23
2019-04-25T06:50:44.517Z,11.53
2019-04-25T06:53:15.448Z,12.47
2019-04-25T06:55:46.261Z,12.67
2019-04-25T06:58:17.153Z,11.30
2019-04-25T07:00:58.916Z,11.53
2019-04-25T07:03:22.939Z,10.87
2019-04-25T07:05:54.928Z,9.93
2019-04-25T07:08:25.833Z,9.27
2019-04-25T07:10:57.147Z,9.60
2019-04-25T07:13:29.275Z,9.33
2019-04-25T07:15:59.728Z,9.47
2019-04-25T07:18:33.123Z,9.43
2019-04-25T07:21:03.918Z,9.20
2019-04-25T07:23:35.784Z,8.67
2019-04-25T07:26:19.137Z,8.80
2019-04-25T07:29:13.498Z,8.50
2019-04-25T07:31:57.309Z,9.00
2019-04-25T07:34:28.854Z,9.07
2019-04-25T07:36:59.349Z,8.83
2019-04-25T07:39:30.865Z,8.83
2019-04-25T07:42:04.158Z,8.17
2019-04-25T07:44:49.308Z,9.03
2019-04-25T07:47:10.583Z,9.93
2019-04-25T07:49:40.645Z,10.50
2019-04-25T07:52:11.588Z,10.43
2019-04-25T07:54:45.278Z,11.47
2019-04-25T07:57:15.813Z,12.40
2019-04-25T07:59:46.869Z,12.30
2019-04-25T08:02:17.281Z,14.13
2019-04-25T08:04:48.283Z,14.57
2019-04-25T08:07:18.797Z,16.27
2019-04-25T08:09:48.431Z,14.90
2019-04-25T08:12:18.965Z,16.37
2019-04-25T08:14:55.853Z,15.87
2019-04-25T08:17:44.153Z,16.43
2019-04-25T08:20:15.232Z,15.97
2019-04-25T08:22:56.227Z,16.03
2019-04-25T08:25:20.277Z,16.23
2019-04-25T08:27:53.508Z,16.63
2019-04-25T08:30:25.049Z,16.73
2019-04-25T08:32:55.522Z,16.50
2019-04-25T08:35:26.553Z,16.47
2019-04-25T08:37:57.429Z,17.10
2019-04-25T08:40:32.372Z,15.47
2019-04-25T08:43:03.569Z,14.13
2019-04-25T08:45:35.273Z,14.97
2019-04-25T08:48:07.285Z,13.70
2019-04-25T08:50:53.789Z,14.13
2019-04-25T08:53:27.893Z,14.17
2019-04-25T08:56:03.816Z,14.73
2019-04-25T08:59:03.997Z,14.20
2019-04-25T09:01:56.873Z,14.97
2019-04-25T09:04:49.301Z,14.93
2019-04-25T09:07:19.765Z,15.63
2019-04-25T09:09:49.677Z,15.27
2019-04-25T09:12:20.249Z,16.13
2019-04-25T09:14:49.731Z,16.10
2019-04-25T09:17:20.889Z,15.93
2019-04-25T09:19:51.641Z,15.00
2019-04-25T09:22:24.266Z,15.60
2019-04-25T09:24:54.320Z,16.40
2019-04-25T09:27:25.183Z,17.63
2019-04-25T09:29:57.758Z,16.10
2019-04-25T09:32:28.725Z,16.87
2019-04-25T09:34:59.101Z,16.03
2019-04-25T09:37:31.069Z,16.87
2019-04-25T09:40:08.512Z,16.87
2019-04-25T09:42:39.366Z,16.60
2019-04-25T09:45:28.272Z,17.37
2019-04-25T09:48:01.021Z,16.77
2019-04-25T09:50:55.741Z,17.55
2019-04-25T09:53:28.309Z,17.00
2019-04-25T09:56:09.774Z,17.50
2019-04-25T09:58:55.581Z,17.37
2019-04-25T10:01:36.614Z,18.13
2019-04-25T10:04:10.201Z,19.98
2019-04-25T10:06:44.356Z,19.65
2019-04-25T10:09:15.685Z,18.77
2019-04-25T10:11:46.510Z,18.07
2019-04-25T10:14:38.861Z,18.62
2019-04-25T10:17:09.302Z,19.30
2019-04-25T10:19:41.177Z,18.90
2019-04-25T10:22:11.417Z,19.83
2019-04-25T10:24:42.873Z,19.25
2019-04-25T10:27:13.951Z,18.42
2019-04-25T10:29:53.710Z,17.62
2019-04-25T10:32:20.765Z,18.73
2019-04-25T10:34:51.734Z,18.67
2019-04-25T10:37:22.025Z,18.32
2019-04-25T10:39:55.284Z,18.73
2019-04-25T10:42:24.635Z,18.73
2019-04-25T10:44:56.656Z,20.08
2019-04-25T10:47:27.126Z,19.50
2019-04-25T10:49:59.188Z,21.73
2019-04-25T10:52:31.416Z,20.52
2019-04-25T10:55:04.090Z,21.25
2019-04-25T10:57:35.851Z,21.62
2019-04-25T11:00:10.324Z,20.92
2019-04-25T11:02:42.297Z,22.90
2019-04-25T11:05:14.935Z,21.95
2019-04-25T11:07:44.841Z,23.87
2019-04-25T11:10:19.541Z,24.82
2019-04-25T11:12:53.987Z,23.47
2019-04-25T11:15:25.658Z,22.62
2019-04-25T11:17:56.057Z,23.15
2019-04-25T11:20:27.374Z,22.77
2019-04-25T11:22:58.837Z,22.87
2019-04-25T11:25:29.685Z,22.05
2019-04-25T11:27:59.621Z,23.42
2019-04-25T11:30:31.242Z,22.48
2019-04-25T11:33:03.567Z,23.55
2019-04-25T11:35:34.380Z,23.85
2019-04-25T11:38:06.554Z,23.95
2019-04-25T11:40:48.801Z,23.23
2019-04-25T11:43:17.081Z,23.65
2019-04-25T11:45:49.217Z,23.70
2019-04-25T11:48:20.218Z,24.15
2019-04-25T11:50:55.770Z,23.37
2019-04-25T11:53:25.625Z,23.27
2019-04-25T11:55:55.454Z,24.17
2019-04-25T11:58:26.162Z,23.83
2019-04-25T12:00:57.923Z,23.65
2019-04-25T12:03:29.797Z,22.13
2019-04-25T12:06:01.825Z,23.27
2019-04-25T12:08:33.590Z,22.43
2019-04-25T12:11:05.781Z,23.92
2019-04-25T12:13:36.185Z,23.37
2019-04-25T12:16:08.273Z,22.62
2019-04-25T12:18:39.253Z,23.60
2019-04-25T12:21:09.689Z,23.37
2019-04-25T12:23:39.589Z,22.77
2019-04-25T12:26:09.437Z,21.55
2019-04-25T12:28:40.382Z,21.97
2019-04-25T12:31:13.276Z,20.80
2019-04-25T12:33:47.277Z,22.50
2019-04-25T12:36:17.690Z,23.38
2019-04-25T12:38:48.363Z,22.33
2019-04-25T12:41:19.379Z,22.20
2019-04-25T12:43:59.259Z,21.67
2019-04-25T12:46:40.793Z,22.20
2019-04-25T12:49:11.165Z,21.57
2019-04-25T12:51:44.127Z,23.80
2019-04-25T12:54:15.549Z,21.40
2019-04-25T12:56:47.492Z,22.27
2019-04-25T12:59:17.937Z,22.13
2019-04-25T13:01:49.516Z,21.47
2019-04-25T13:04:21.432Z,21.33
2019-04-25T13:06:54.120Z,22.63
2019-04-25T13:09:26.165Z,21.65
2019-04-25T13:11:56.034Z,19.75
2019-04-25T13:14:26.067Z,21.37
2019-04-25T13:16:56.469Z,20.50
2019-04-25T13:19:29.829Z,22.23
2019-04-25T13:22:00.665Z,22.00
2019-04-25T13:24:31.601Z,21.10
2019-04-25T13:27:07.903Z,20.85
2019-04-25T13:29:58.830Z,19.55
2019-04-25T13:32:50.444Z,19.90
2019-04-25T13:35:29.406Z,20.23
2019-04-25T13:37:59.765Z,21.07
2019-04-25T13:40:29.597Z,20.03
2019-04-25T13:43:00.133Z,21.30
2019-04-25T13:45:30.583Z,20.32
2019-04-25T13:48:00.349Z,19.30
2019-04-25T13:50:30.616Z,19.52
2019-04-25T13:53:03.277Z,18.77
2019-04-25T13:55:34.668Z,18.77
2019-04-25T13:58:07.032Z,18.47
2019-04-25T14:00:38.525Z,18.40
2019-04-25T14:03:10.121Z,18.70
2019-04-25T14:05:40.729Z,17.73
2019-04-25T14:08:13.447Z,18.55
2019-04-25T14:10:44.365Z,16.60
2019-04-25T14:13:14.833Z,16.20
2019-04-25T14:15:50.585Z,16.33
2019-04-25T14:18:36.205Z,15.77
2019-04-25T14:21:14.825Z,15.70
2019-04-25T14:23:44.625Z,15.87
2019-04-25T14:26:15.519Z,15.60
2019-04-25T14:28:45.453Z,14.75
2019-04-25T14:31:35.428Z,13.45
2019-04-25T14:33:51.862Z,15.30
2019-04-25T14:36:25.824Z,14.13
2019-04-25T14:38:54.963Z,14.27
2019-04-25T14:41:26.057Z,14.53
2019-04-25T14:43:56.562Z,14.30
2019-04-25T14:46:27.761Z,13.87
2019-04-25T14:48:58.717Z,13.83
2019-04-25T14:51:30.890Z,13.73
2019-04-25T14:54:02.681Z,14.73
2019-04-25T14:56:51.733Z,15.07
2019-04-25T14:59:23.594Z,15.13
2019-04-25T15:01:54.389Z,13.57
2019-04-25T15:04:24.429Z,15.30
2019-04-25T15:06:54.833Z,14.40
2019-04-25T15:09:25.230Z,14.47
2019-04-25T15:11:55.521Z,14.33
2019-04-25T15:14:25.533Z,14.53
2019-04-25T15:16:55.934Z,14.73
2019-04-25T15:19:27.451Z,13.77
2019-04-25T15:21:58.563Z,15.00
2019-04-25T15:24:28.991Z,14.70
2019-04-25T15:26:59.509Z,14.17
2019-04-25T15:29:29.916Z,13.93
2019-04-25T15:31:59.161Z,14.00
2019-04-25T15:34:38.105Z,13.83
2019-04-25T15:37:14.754Z,14.67
2019-04-25T15:40:06.574Z,14.07
2019-04-25T15:42:49.621Z,13.27
2019-04-25T15:45:38.795Z,12.97
2019-04-25T15:48:09.073Z,12.97
2019-04-25T15:50:39.914Z,13.10
2019-04-25T15:53:10.513Z,13.57
2019-04-25T15:55:40.795Z,12.70
2019-04-25T15:58:15.009Z,11.97
2019-04-25T16:00:45.397Z,12.23
2019-04-25T16:03:16.596Z,12.40
2019-04-25T16:05:47.201Z,10.93
2019-04-25T16:08:18.106Z,12.20
2019-04-25T16:10:49.009Z,11.57
2019-04-25T16:13:18.910Z,11.00
2019-04-25T16:15:50.626Z,11.17
2019-04-25T16:18:21.109Z,11.30
2019-04-25T16:20:51.515Z,11.13
2019-04-25T16:23:21.418Z,10.47
2019-04-25T16:25:51.769Z,11.00
2019-04-25T16:28:22.681Z,11.00
2019-04-25T16:30:53.225Z,11.10
2019-04-25T16:33:24.760Z,11.97
2019-04-25T16:35:55.773Z,12.23
2019-04-25T16:38:26.641Z,11.23
2019-04-25T16:40:59.474Z,11.73
2019-04-25T16:43:33.237Z,12.23
2019-04-25T16:46:03.582Z,11.63
2019-04-25T16:48:36.121Z,11.60
2019-04-25T16:51:06.106Z,12.40
2019-04-25T16:53:36.597Z,11.63
2019-04-25T16:56:06.753Z,11.17
2019-04-25T16:58:37.140Z,11.50
2019-04-25T17:01:13.321Z,11.40
2019-04-25T17:03:44.823Z,11.70
2019-04-25T17:06:15.512Z,11.83
2019-04-25T17:08:45.559Z,12.70
2019-04-25T17:11:18.957Z,12.07
2019-04-25T17:14:02.457Z,13.30
2019-04-25T17:17:12.676Z,11.53
2019-04-25T17:20:01.267Z,12.30
2019-04-25T17:22:32.877Z,11.93
2019-04-25T17:25:02.746Z,11.90
2019-04-25T17:27:33.009Z,12.23
2019-04-25T17:30:03.761Z,12.73
2019-04-25T17:32:55.442Z,12.80
2019-04-25T17:35:52.069Z,11.70
2019-04-25T17:38:29.857Z,11.93
2019-04-25T17:41:00.437Z,12.73
2019-04-25T17:43:31.999Z,11.93
2019-04-25T17:46:04.210Z,12.00
2019-04-25T17:48:36.138Z,11.83
2019-04-25T17:51:06.097Z,12.20
2019-04-25T17:53:39.114Z,11.87
2019-04-25T17:56:09.473Z,11.93
2019-04-25T17:58:39.809Z,11.33
2019-04-25T18:01:10.641Z,11.80
2019-04-25T18:03:41.849Z,12.30
2019-04-25T18:06:12.318Z,11.87
2019-04-25T18:08:42.770Z,11.87
2019-04-25T18:11:13.842Z,12.10
2019-04-25T18:13:45.009Z,11.53
2019-04-25T18:16:24.541Z,11.83
2019-04-25T18:19:02.735Z,12.07
2019-04-25T18:21:34.285Z,12.40
2019-04-25T18:24:23.381Z,11.53
2019-04-25T18:27:08.693Z,12.30
2019-04-25T18:29:39.671Z,11.50
2019-04-25T18:32:09.679Z,11.93
2019-04-25T18:34:46.496Z,12.80
2019-04-25T18:37:34.066Z,11.77
2019-04-25T18:40:17.499Z,12.23
2019-04-25T18:43:11.065Z,12.57
2019-04-25T18:45:43.208Z,11.47
2019-04-25T18:48:16.122Z,12.87
2019-04-25T18:50:46.731Z,11.77
2019-04-25T18:53:37.725Z,13.20
2019-04-25T18:56:17.857Z,12.43
2019-04-25T18:59:16.201Z,13.23
2019-04-25T19:02:16.694Z,12.97
2019-04-25T19:05:20.382Z,12.73
2019-04-25T19:07:51.613Z,12.57
2019-04-25T19:10:23.837Z,12.47
2019-04-25T19:12:54.674Z,11.97
2019-04-25T19:15:25.565Z,13.00
2019-04-25T19:17:56.038Z,13.17
2019-04-25T19:20:26.519Z,12.53
2019-04-25T19:22:57.089Z,12.90
2019-04-25T19:25:26.970Z,13.10
2019-04-25T19:27:57.390Z,13.80
2019-04-25T19:30:27.897Z,13.47
2019-04-25T19:32:58.326Z,13.30
2019-04-25T19:35:28.865Z,14.10
2019-04-25T19:38:03.221Z,13.57
2019-04-25T19:41:01.869Z,13.67
2019-04-25T19:43:42.800Z,13.60
2019-04-25T19:46:12.649Z,14.37
2019-04-25T19:48:44.829Z,14.20
2019-04-25T19:51:17.380Z,13.37
2019-04-25T19:53:47.867Z,14.47
2019-04-25T19:56:19.741Z,12.83
2019-04-25T19:58:50.732Z,14.40
2019-04-25T20:01:21.088Z,13.87
2019-04-25T20:03:58.627Z,13.10
2019-04-25T20:06:47.449Z,13.83
2019-04-25T20:09:34.852Z,13.63
2019-04-25T20:12:04.873Z,14.27
2019-04-25T20:14:35.741Z,14.07
2019-04-25T20:17:06.265Z,13.83
2019-04-25T20:19:36.665Z,13.77
2019-04-25T20:22:07.648Z,13.73
2019-04-25T20:24:37.637Z,13.83
2019-04-25T20:27:07.458Z,14.07
2019-04-25T20:29:38.019Z,13.73
2019-04-25T20:32:08.926Z,13.87
2019-04-25T20:34:41.434Z,14.87
2019-04-25T20:37:11.793Z,14.33
2019-04-25T20:39:42.225Z,13.87
2019-04-25T20:42:13.057Z,14.47
2019-04-25T20:44:43.479Z,14.53
2019-04-25T20:47:13.349Z,14.13
2019-04-25T20:49:46.643Z,13.77
2019-04-25T20:52:18.001Z,14.47
2019-04-25T20:54:49.026Z,14.23
2019-04-25T20:57:20.093Z,14.13
2019-04-25T20:59:51.631Z,14.07
2019-04-25T21:02:23.666Z,15.03
2019-04-25T21:04:56.875Z,14.60
2019-04-25T21:07:27.921Z,13.60
2019-04-25T21:09:59.449Z,14.00
2019-04-25T21:12:29.298Z,13.73
2019-04-25T21:15:13.523Z,13.37
2019-04-25T21:17:58.629Z,14.23
2019-04-25T21:20:28.529Z,13.50
2019-04-25T21:22:58.893Z,12.70
2019-04-25T21:25:30.364Z,13.23
2019-04-25T21:28:01.233Z,14.30
2019-04-25T21:30:31.170Z,14.07
2019-04-25T21:33:02.747Z,14.23
2019-04-25T21:35:33.973Z,13.77
2019-04-25T21:38:04.401Z,14.03
2019-04-25T21:41:00.179Z,14.00
2019-04-25T21:43:32.812Z,14.10
2019-04-25T21:46:04.029Z,14.03
2019-04-25T21:48:38.372Z,13.77
2019-04-25T21:51:26.867Z,14.63
2019-04-25T21:53:57.297Z,14.43
2019-04-25T21:56:28.058Z,14.60
2019-04-25T21:58:59.801Z,15.43
2019-04-25T22:01:40.666Z,16.27
2019-04-25T22:04:11.165Z,15.53
2019-04-25T22:06:41.458Z,14.80
2019-04-25T22:09:15.999Z,16.17
2019-04-25T22:11:46.045Z,15.50
2019-04-25T22:14:16.961Z,16.60
2019-04-25T22:16:47.861Z,15.27
2019-04-25T22:19:21.284Z,16.13
2019-04-25T22:21:51.989Z,16.47
2019-04-25T22:24:23.801Z,15.17
2019-04-25T22:26:57.537Z,15.90
2019-04-25T22:29:29.241Z,17.43
2019-04-25T22:32:08.909Z,17.30
2019-04-25T22:34:52.269Z,16.57
2019-04-25T22:37:17.046Z,17.37
2019-04-25T22:39:48.342Z,17.07
2019-04-25T22:42:18.708Z,17.33
2019-04-25T22:44:49.689Z,17.83
2019-04-25T22:47:20.227Z,16.73
2019-04-25T22:49:50.189Z,18.40
2019-04-25T22:52:20.992Z,17.47
2019-04-25T22:54:51.957Z,18.87
2019-04-25T22:57:22.213Z,18.97
2019-04-25T22:59:53.109Z,17.77
2019-04-25T23:02:41.797Z,18.87
2019-04-25T23:05:40.990Z,18.57
2019-04-25T23:08:12.638Z,17.90
2019-04-25T23:10:43.075Z,18.80
2019-04-25T23:13:13.606Z,18.57
2019-04-25T23:15:44.041Z,19.33
2019-04-25T23:18:14.458Z,18.30
2019-04-25T23:20:45.594Z,19.40
2019-04-25T23:23:16.657Z,19.27
2019-04-25T23:26:14.656Z,20.17
2019-04-25T23:28:46.433Z,19.17
2019-04-25T23:31:27.165Z,19.20
2019-04-25T23:33:57.861Z,19.37
2019-04-25T23:36:29.235Z,18.60
2019-04-25T23:39:00.509Z,19.33
2019-04-25T23:41:41.146Z,19.53
2019-04-25T23:44:12.164Z,19.47
2019-04-25T23:46:42.309Z,18.97
2019-04-25T23:49:14.812Z,19.40
2019-04-25T23:51:46.233Z,19.43
2019-04-25T23:54:17.207Z,18.83
2019-04-25T23:56:48.185Z,18.37
2019-04-25T23:59:20.657Z,19.60
